createdAt,value
2017-08-02T00:00:11.550Z,85.40
2017-08-02T00:02:38.488Z,84.80
2017-08-02T00:05:05.356Z,84.40
2017-08-02T00:07:33.269Z,84.50
2017-08-02T00:09:59.915Z,83.50
2017-08-02T00:12:26.200Z,83.50
2017-08-02T00:14:52.473Z,83.80
2017-08-02T00:17:18.786Z,84.30
2017-08-02T00:19:45.069Z,83.90
2017-08-02T00:22:11.354Z,83.60
2017-08-02T00:24:37.635Z,83.50
2017-08-02T00:27:03.908Z,82.80
2017-08-02T00:29:30.173Z,83.20
2017-08-02T00:31:56.425Z,83.20
2017-08-02T00:34:23.074Z,83.00
2017-08-02T00:36:49.336Z,82.80
2017-08-02T00:39:15.606Z,84.30
2017-08-02T00:41:41.895Z,85.50
2017-08-02T00:44:08.174Z,85.60
2017-08-02T00:46:34.437Z,86.20
2017-08-02T00:49:00.696Z,85.90
2017-08-02T00:51:26.978Z,85.50
2017-08-02T00:53:53.243Z,84.30
2017-08-02T00:56:19.906Z,84.90
2017-08-02T00:58:46.172Z,84.90
2017-08-02T01:01:12.803Z,86.70
2017-08-02T01:03:39.061Z,89.40
2017-08-02T01:06:05.354Z,90.00
2017-08-02T01:08:31.609Z,89.20
2017-08-02T01:10:57.884Z,88.70
2017-08-02T01:13:24.173Z,88.70
2017-08-02T01:15:50.447Z,87.80
2017-08-02T01:18:16.769Z,87.70
2017-08-02T01:20:43.020Z,87.00
2017-08-02T01:23:09.297Z,86.50
2017-08-02T01:25:35.594Z,87.50
2017-08-02T01:28:02.328Z,88.20
2017-08-02T01:30:28.600Z,89.00
2017-08-02T01:32:54.902Z,89.30
2017-08-02T01:35:21.189Z,88.80
2017-08-02T01:37:47.466Z,89.30
2017-08-02T01:40:13.767Z,88.50
2017-08-02T01:42:40.057Z,88.20
2017-08-02T01:45:06.740Z,87.70
2017-08-02T01:47:33.037Z,87.70
2017-08-02T01:49:59.346Z,87.30
2017-08-02T01:52:25.634Z,87.50
2017-08-02T01:54:52.285Z,86.60
2017-08-02T01:57:18.557Z,87.00
2017-08-02T01:59:44.829Z,86.30
2017-08-02T02:02:11.096Z,86.50
2017-08-02T02:04:37.352Z,86.20
2017-08-02T02:07:03.646Z,85.30
2017-08-02T02:09:29.967Z,85.40
2017-08-02T02:11:56.287Z,85.80
2017-08-02T02:14:22.541Z,85.70
2017-08-02T02:16:48.807Z,85.40
2017-08-02T02:19:15.070Z,86.00
2017-08-02T02:21:41.348Z,86.10
2017-08-02T02:24:07.981Z,84.30
2017-08-02T02:26:34.261Z,84.30
2017-08-02T02:29:00.524Z,84.30
2017-08-02T02:31:26.770Z,84.60
2017-08-02T02:33:53.071Z,84.70
2017-08-02T02:36:19.348Z,84.20
2017-08-02T02:38:45.625Z,84.60
2017-08-02T02:41:11.904Z,84.20
2017-08-02T02:43:38.207Z,85.50
2017-08-02T02:46:04.522Z,85.80
2017-08-02T02:48:30.807Z,85.80
2017-08-02T02:50:57.099Z,86.10
2017-08-02T02:53:23.772Z,85.70
2017-08-02T02:55:50.055Z,85.70
2017-08-02T02:58:16.301Z,85.90
2017-08-02T03:00:42.576Z,86.80
2017-08-02T03:03:08.831Z,86.70
2017-08-02T03:05:35.568Z,85.90
2017-08-02T03:08:01.858Z,86.30
2017-08-02T03:10:28.146Z,86.10
2017-08-02T03:12:54.464Z,86.60
2017-08-02T03:15:20.727Z,86.30
2017-08-02T03:17:47.001Z,86.20
2017-08-02T03:20:13.290Z,85.50
2017-08-02T03:22:39.575Z,85.70
2017-08-02T03:25:05.842Z,85.10
2017-08-02T03:27:32.131Z,85.60
2017-08-02T03:29:58.398Z,84.50
2017-08-02T03:32:25.049Z,85.20
2017-08-02T03:34:51.368Z,85.20
2017-08-02T03:37:17.619Z,85.20
2017-08-02T03:39:43.893Z,84.70
2017-08-02T03:42:10.166Z,85.60
2017-08-02T03:44:36.474Z,85.70
2017-08-02T03:47:02.756Z,85.90
2017-08-02T03:49:29.031Z,85.20
2017-08-02T03:51:55.673Z,85.20
2017-08-02T03:54:22.325Z,85.60
2017-08-02T03:56:48.941Z,85.90
2017-08-02T03:59:15.301Z,85.90
2017-08-02T04:01:41.571Z,86.50
2017-08-02T04:04:07.828Z,85.40
2017-08-02T04:06:34.097Z,85.70
2017-08-02T04:09:00.364Z,86.10
2017-08-02T04:11:26.642Z,85.50
2017-08-02T04:13:52.918Z,85.80
2017-08-02T04:16:19.205Z,86.10
2017-08-02T04:18:45.815Z,86.30
2017-08-02T04:21:12.474Z,85.60
2017-08-02T04:23:38.733Z,85.60
2017-08-02T04:26:05.261Z,85.80
2017-08-02T04:28:31.526Z,86.10
2017-08-02T04:30:57.780Z,85.90
2017-08-02T04:33:24.429Z,87.50
2017-08-02T04:35:51.061Z,87.00
2017-08-02T04:38:17.732Z,86.50
2017-08-02T04:40:43.994Z,86.50
2017-08-02T04:43:10.285Z,86.60
2017-08-02T04:45:36.535Z,86.30
2017-08-02T04:48:02.849Z,86.30
2017-08-02T04:50:29.116Z,86.10
2017-08-02T04:52:55.418Z,85.70
2017-08-02T04:55:21.694Z,85.80
2017-08-02T04:57:48.333Z,86.30
2017-08-02T05:00:14.633Z,86.30
2017-08-02T05:02:40.947Z,86.30
2017-08-02T05:05:07.261Z,86.30
2017-08-02T05:07:33.501Z,86.10
2017-08-02T05:09:59.806Z,85.80
2017-08-02T05:12:26.076Z,85.40
2017-08-02T05:14:52.377Z,86.30
2017-08-02T05:17:18.648Z,86.30
2017-08-02T05:19:44.926Z,85.70
2017-08-02T05:22:11.210Z,86.40
2017-08-02T05:24:37.453Z,86.80
2017-08-02T05:27:03.744Z,85.80
2017-08-02T05:29:30.019Z,85.10
2017-08-02T05:31:56.304Z,85.10
2017-08-02T05:34:22.604Z,85.50
2017-08-02T05:36:48.894Z,85.30
2017-08-02T05:39:15.158Z,85.50
2017-08-02T05:41:41.744Z,85.70
2017-08-02T05:44:07.994Z,85.20
2017-08-02T05:46:34.266Z,86.00
2017-08-02T05:49:00.565Z,85.60
2017-08-02T05:51:27.238Z,85.40
2017-08-02T05:53:53.521Z,85.40
2017-08-02T05:56:19.825Z,86.40
2017-08-02T05:58:46.094Z,86.20
2017-08-02T06:01:12.749Z,85.80
2017-08-02T06:03:39.090Z,85.80
2017-08-02T06:06:05.375Z,85.50
2017-08-02T06:08:31.675Z,84.00
2017-08-02T06:10:57.964Z,84.00
2017-08-02T06:13:24.200Z,82.30
2017-08-02T06:15:50.508Z,82.00
2017-08-02T06:18:17.178Z,81.20
2017-08-02T06:20:43.498Z,81.20
2017-08-02T06:23:09.801Z,81.00
2017-08-02T06:25:36.476Z,80.40
2017-08-02T06:28:02.770Z,80.40
2017-08-02T06:30:29.040Z,80.50
2017-08-02T06:32:55.325Z,79.00
2017-08-02T06:35:21.979Z,79.00
2017-08-02T06:37:48.258Z,79.00
2017-08-02T06:40:14.505Z,78.10
2017-08-02T06:42:40.790Z,79.60
2017-08-02T06:45:07.058Z,80.10
2017-08-02T06:47:33.684Z,80.70
2017-08-02T06:49:59.967Z,81.40
2017-08-02T06:52:26.220Z,82.50
2017-08-02T06:54:52.518Z,81.90
2017-08-02T06:57:18.777Z,81.40
2017-08-02T06:59:45.098Z,81.90
2017-08-02T07:02:11.426Z,81.70
2017-08-02T07:04:37.728Z,82.70
2017-08-02T07:07:04.418Z,82.70
2017-08-02T07:09:30.744Z,82.70
2017-08-02T07:11:57.038Z,80.70
2017-08-02T07:14:23.671Z,79.20
2017-08-02T07:16:50.345Z,79.80
2017-08-02T07:19:16.647Z,79.80
2017-08-02T07:21:42.940Z,79.80
2017-08-02T07:24:09.229Z,80.10
2017-08-02T07:26:35.499Z,81.00
2017-08-02T07:29:01.778Z,80.10
2017-08-02T07:31:28.060Z,80.70
2017-08-02T07:33:54.382Z,79.40
2017-08-02T07:36:20.656Z,79.50
2017-08-02T07:38:46.947Z,78.30
2017-08-02T07:41:13.233Z,76.80
2017-08-02T07:43:39.490Z,77.50
2017-08-02T07:46:05.774Z,77.80
2017-08-02T07:48:32.083Z,76.60
2017-08-02T07:50:58.720Z,77.10
2017-08-02T07:53:25.365Z,76.80
2017-08-02T07:55:51.980Z,77.70
2017-08-02T07:58:18.699Z,77.60
2017-08-02T08:00:44.975Z,77.10
2017-08-02T08:03:11.251Z,76.80
2017-08-02T08:05:37.530Z,75.60
2017-08-02T08:08:04.190Z,76.80
2017-08-02T08:10:30.489Z,76.80
2017-08-02T08:12:56.740Z,74.80
2017-08-02T08:15:23.040Z,76.30
2017-08-02T08:17:49.302Z,74.90
2017-08-02T08:20:15.598Z,73.70
2017-08-02T08:22:41.870Z,75.00
2017-08-02T08:25:08.159Z,72.60
2017-08-02T08:27:34.439Z,71.90
2017-08-02T08:30:00.762Z,72.90
2017-08-02T08:32:27.074Z,74.10
2017-08-02T08:34:53.378Z,72.40
2017-08-02T08:37:19.660Z,71.70
2017-08-02T08:39:45.996Z,70.10
2017-08-02T08:42:12.273Z,71.80
2017-08-02T08:44:38.559Z,71.90
2017-08-02T08:47:04.885Z,71.00
2017-08-02T08:49:31.158Z,71.00
2017-08-02T08:51:57.449Z,68.70
2017-08-02T08:54:23.741Z,68.90
2017-08-02T08:56:50.018Z,68.60
2017-08-02T08:59:16.292Z,69.40
2017-08-02T09:01:42.560Z,69.60
2017-08-02T09:04:08.858Z,69.60
2017-08-02T09:06:35.128Z,69.40
2017-08-02T09:09:01.421Z,68.80
2017-08-02T09:11:27.697Z,67.90
2017-08-02T09:13:54.035Z,68.40
2017-08-02T09:16:20.326Z,67.10
2017-08-02T09:18:46.602Z,67.30
2017-08-02T09:21:12.839Z,66.90
2017-08-02T09:23:39.151Z,67.30
2017-08-02T09:26:05.441Z,66.80
2017-08-02T09:28:31.743Z,65.40
2017-08-02T09:30:58.089Z,65.60
2017-08-02T09:33:24.372Z,67.30
2017-08-02T09:35:50.678Z,68.10
2017-08-02T09:38:16.944Z,68.60
2017-08-02T09:40:43.257Z,65.30
2017-08-02T09:43:09.552Z,65.90
2017-08-02T09:45:36.108Z,67.10
2017-08-02T09:48:02.377Z,65.30
2017-08-02T09:50:28.681Z,65.80
2017-08-02T09:52:55.017Z,62.90
2017-08-02T09:55:21.286Z,63.90
2017-08-02T09:57:47.558Z,65.30
2017-08-02T10:00:13.825Z,65.60
2017-08-02T10:02:40.502Z,65.30
2017-08-02T10:05:06.774Z,65.30
2017-08-02T10:07:33.057Z,66.90
2017-08-02T10:09:59.316Z,64.60
2017-08-02T10:12:25.598Z,64.40
2017-08-02T10:14:51.873Z,63.40
2017-08-02T10:17:18.150Z,65.50
2017-08-02T10:19:44.454Z,64.70
2017-08-02T10:22:10.741Z,65.00
2017-08-02T10:24:37.014Z,63.30
2017-08-02T10:27:03.298Z,61.70
2017-08-02T10:29:29.559Z,62.40
2017-08-02T10:31:55.854Z,61.20
2017-08-02T10:34:22.096Z,62.60
2017-08-02T10:36:48.389Z,61.80
2017-08-02T10:39:14.663Z,60.80
2017-08-02T10:41:40.955Z,61.60
2017-08-02T10:44:07.213Z,59.40
2017-08-02T10:46:33.538Z,59.10
2017-08-02T10:48:59.845Z,58.90
2017-08-02T10:51:26.142Z,59.20
2017-08-02T10:53:52.421Z,59.40
2017-08-02T10:56:18.689Z,58.10
2017-08-02T10:58:44.981Z,57.60
2017-08-02T11:01:11.251Z,58.00
2017-08-02T11:03:37.830Z,57.10
2017-08-02T11:06:04.094Z,58.00
2017-08-02T11:08:30.384Z,56.40
2017-08-02T11:10:56.688Z,59.40
2017-08-02T11:13:22.955Z,61.20
2017-08-02T11:15:49.292Z,57.90
2017-08-02T11:18:15.617Z,57.60
2017-08-02T11:20:41.913Z,57.30
2017-08-02T11:23:08.170Z,56.50
2017-08-02T11:25:34.462Z,57.40
2017-08-02T11:28:00.717Z,52.90
2017-08-02T11:30:26.988Z,53.10
2017-08-02T11:32:53.272Z,53.80
2017-08-02T11:35:19.537Z,51.00
2017-08-02T11:37:45.831Z,51.60
2017-08-02T11:40:12.507Z,47.00
2017-08-02T11:42:38.826Z,47.00
2017-08-02T11:45:05.153Z,44.30
2017-08-02T11:47:31.808Z,43.80
2017-08-02T11:49:58.097Z,38.30
2017-08-02T11:52:24.345Z,39.10
2017-08-02T11:54:50.626Z,37.60
2017-08-02T11:57:16.948Z,35.80
2017-08-02T11:59:43.232Z,37.70
2017-08-02T12:02:09.527Z,37.50
2017-08-02T12:04:37.180Z,36.10
2017-08-02T12:07:03.437Z,36.10
2017-08-02T12:09:29.725Z,35.00
2017-08-02T12:11:56.010Z,34.60
2017-08-02T12:14:22.288Z,35.80
2017-08-02T12:16:48.573Z,34.50
2017-08-02T12:19:14.846Z,34.00
2017-08-02T12:21:41.142Z,31.10
2017-08-02T12:24:07.404Z,30.20
2017-08-02T12:26:33.748Z,28.30
2017-08-02T12:29:00.015Z,29.90
2017-08-02T12:31:26.582Z,31.70
2017-08-02T12:33:52.824Z,29.20
2017-08-02T12:36:19.102Z,28.10
2017-08-02T12:38:45.403Z,27.40
2017-08-02T12:41:11.677Z,22.90
2017-08-02T12:43:38.031Z,24.40
2017-08-02T12:46:04.285Z,23.20
2017-08-02T12:48:30.637Z,22.80
2017-08-02T12:50:56.939Z,21.50
2017-08-02T12:53:23.251Z,23.40
2017-08-02T12:55:49.520Z,25.20
2017-08-02T12:58:15.818Z,22.90
2017-08-02T13:00:42.089Z,23.40
2017-08-02T13:03:08.715Z,23.50
2017-08-02T13:05:35.005Z,23.50
2017-08-02T13:08:01.286Z,20.70
2017-08-02T13:10:27.883Z,20.80
2017-08-02T13:12:54.148Z,21.40
2017-08-02T13:15:20.400Z,21.90
2017-08-02T13:17:46.667Z,21.40
2017-08-02T13:20:12.954Z,21.60
2017-08-02T13:22:39.244Z,20.80
2017-08-02T13:25:05.581Z,20.90
2017-08-02T13:27:32.224Z,19.80
2017-08-02T13:29:58.904Z,19.70
2017-08-02T13:32:25.170Z,19.80
2017-08-02T13:34:51.467Z,20.00
2017-08-02T13:37:17.754Z,18.90
2017-08-02T13:39:44.420Z,20.30
2017-08-02T13:42:10.702Z,20.30
2017-08-02T13:44:37.328Z,20.60
2017-08-02T13:47:03.606Z,19.30
2017-08-02T13:49:29.896Z,20.40
2017-08-02T13:51:56.162Z,19.40
2017-08-02T13:54:22.447Z,19.30
2017-08-02T13:56:48.710Z,21.00
2017-08-02T13:59:15.006Z,24.40
2017-08-02T14:01:41.304Z,22.70
2017-08-02T14:04:07.578Z,22.10
2017-08-02T14:06:34.141Z,21.40
2017-08-02T14:09:00.414Z,20.20
2017-08-02T14:11:26.653Z,21.20
2017-08-02T14:13:52.920Z,19.10
2017-08-02T14:16:19.213Z,19.80
2017-08-02T14:18:45.948Z,20.00
2017-08-02T14:21:12.232Z,19.90
2017-08-02T14:23:38.491Z,18.90
2017-08-02T14:26:04.818Z,20.00
2017-08-02T14:28:31.109Z,18.90
2017-08-02T14:30:57.412Z,18.40
2017-08-02T14:33:23.660Z,18.30
2017-08-02T14:35:50.363Z,20.30
2017-08-02T14:38:17.171Z,20.30
2017-08-02T14:40:44.215Z,19.60
2017-08-02T14:43:11.070Z,20.30
2017-08-02T14:45:37.332Z,19.90
2017-08-02T14:48:03.631Z,21.10
2017-08-02T14:50:29.928Z,20.90
2017-08-02T14:52:56.326Z,20.50
2017-08-02T14:55:22.593Z,21.20
2017-08-02T14:57:49.226Z,21.80
2017-08-02T15:00:15.875Z,21.70
2017-08-02T15:02:42.134Z,21.70
2017-08-02T15:05:08.782Z,22.20
2017-08-02T15:07:35.068Z,21.10
2017-08-02T15:10:01.322Z,21.80
2017-08-02T15:12:28.593Z,23.40
2017-08-02T15:14:54.857Z,23.10
2017-08-02T15:17:21.499Z,23.40
2017-08-02T15:19:48.169Z,24.80
2017-08-02T15:22:15.456Z,24.80
2017-08-02T15:24:41.736Z,26.00
2017-08-02T15:27:08.001Z,27.60
2017-08-02T15:29:34.321Z,28.50
2017-08-02T15:32:00.606Z,28.20
2017-08-02T15:34:26.896Z,29.20
2017-08-02T15:37:00.332Z,29.30
2017-08-02T15:39:27.629Z,26.70
2017-08-02T15:41:54.570Z,26.70
2017-08-02T15:44:21.360Z,26.10
2017-08-02T15:46:47.641Z,26.10
2017-08-02T15:49:14.818Z,27.40
2017-08-02T15:51:41.180Z,29.60
2017-08-02T15:54:07.812Z,30.70
2017-08-02T15:56:34.882Z,30.70
2017-08-02T15:59:02.067Z,33.40
2017-08-02T16:01:28.353Z,39.40
2017-08-02T16:03:55.645Z,37.80
2017-08-02T16:06:22.962Z,37.80
2017-08-02T16:08:50.859Z,38.60
2017-08-02T16:11:18.141Z,41.30
2017-08-02T16:13:45.286Z,40.60
2017-08-02T16:16:11.810Z,40.10
2017-08-02T16:18:38.110Z,37.90
2017-08-02T16:21:04.368Z,39.60
2017-08-02T16:23:30.657Z,39.00
2017-08-02T16:25:57.565Z,39.80
2017-08-02T16:28:23.892Z,39.00
2017-08-02T16:30:50.144Z,38.50
2017-08-02T16:33:16.424Z,38.90
2017-08-02T16:35:42.676Z,39.40
2017-08-02T16:38:09.000Z,40.80
2017-08-02T16:40:35.313Z,39.90
2017-08-02T16:43:01.598Z,43.50
2017-08-02T16:45:28.249Z,45.50
2017-08-02T16:47:54.950Z,46.60
2017-08-02T16:50:21.274Z,46.60
2017-08-02T16:52:47.547Z,48.00
2017-08-02T16:55:14.214Z,50.40
2017-08-02T16:57:40.479Z,50.40
2017-08-02T17:00:06.765Z,48.40
2017-08-02T17:02:33.068Z,52.00
2017-08-02T17:04:59.725Z,52.80
2017-08-02T17:07:26.022Z,52.80
2017-08-02T17:09:52.329Z,52.80
2017-08-02T17:12:18.617Z,51.70
2017-08-02T17:14:44.886Z,52.50
2017-08-02T17:17:11.190Z,53.70
2017-08-02T17:19:38.820Z,54.30
2017-08-02T17:22:05.112Z,53.30
2017-08-02T17:24:31.889Z,54.60
2017-08-02T17:26:58.181Z,54.40
2017-08-02T17:29:26.062Z,54.00
2017-08-02T17:31:52.358Z,54.60
2017-08-02T17:34:19.877Z,54.90
2017-08-02T17:36:46.164Z,55.30
2017-08-02T17:39:13.346Z,54.70
2017-08-02T17:41:39.659Z,56.50
2017-08-02T17:44:05.934Z,56.40
2017-08-02T17:46:32.216Z,56.70
2017-08-02T17:48:58.500Z,57.20
2017-08-02T17:51:24.859Z,57.40
2017-08-02T17:53:51.133Z,57.60
2017-08-02T17:56:17.426Z,57.10
2017-08-02T17:58:43.721Z,57.80
2017-08-02T18:01:10.048Z,58.10
2017-08-02T18:03:36.304Z,59.20
2017-08-02T18:06:02.595Z,59.50
2017-08-02T18:08:28.895Z,59.20
2017-08-02T18:10:55.175Z,60.00
2017-08-02T18:13:21.445Z,60.20
2017-08-02T18:15:47.716Z,60.20
2017-08-02T18:18:14.451Z,60.40
2017-08-02T18:20:40.807Z,60.40
2017-08-02T18:23:07.097Z,60.40
2017-08-02T18:25:33.362Z,61.40
2017-08-02T18:27:59.662Z,61.50
2017-08-02T18:30:26.318Z,62.60
2017-08-02T18:32:53.809Z,62.60
2017-08-02T18:35:20.064Z,63.50
2017-08-02T18:37:46.353Z,63.90
2017-08-02T18:40:12.649Z,64.00
2017-08-02T18:42:40.308Z,64.40
2017-08-02T18:45:06.587Z,64.40
2017-08-02T18:47:39.719Z,65.20
2017-08-02T18:50:06.398Z,65.00
2017-08-02T18:52:32.768Z,65.00
2017-08-02T18:54:59.344Z,65.00
2017-08-02T18:57:25.623Z,65.50
2017-08-02T18:59:52.011Z,65.80
2017-08-02T19:02:18.386Z,66.20
2017-08-02T19:04:44.686Z,66.40
2017-08-02T19:07:11.096Z,67.10
2017-08-02T19:09:37.399Z,67.90
2017-08-02T19:12:04.085Z,68.20
2017-08-02T19:14:30.703Z,68.20
2017-08-02T19:16:57.405Z,68.40
2017-08-02T19:19:25.264Z,68.40
2017-08-02T19:21:51.615Z,69.00
2017-08-02T19:24:17.914Z,69.30
2017-08-02T19:26:44.238Z,70.00
2017-08-02T19:29:10.557Z,70.10
2017-08-02T19:31:37.335Z,69.60
2017-08-02T19:34:05.299Z,70.90
2017-08-02T19:36:31.579Z,70.90
2017-08-02T19:38:57.908Z,70.60
2017-08-02T19:41:24.221Z,71.10
2017-08-02T19:43:50.513Z,71.10
2017-08-02T19:46:16.827Z,71.20
2017-08-02T19:48:43.120Z,71.50
2017-08-02T19:51:09.468Z,72.20
2017-08-02T19:53:36.303Z,72.30
2017-08-02T19:56:02.639Z,72.00
2017-08-02T19:58:28.933Z,72.00
2017-08-02T20:00:55.653Z,72.30
2017-08-02T20:03:22.793Z,72.30
2017-08-02T20:05:49.171Z,72.40
2017-08-02T20:08:15.486Z,72.60
2017-08-02T20:10:42.118Z,72.50
2017-08-02T20:13:08.765Z,72.60
2017-08-02T20:15:35.409Z,73.00
2017-08-02T20:18:01.758Z,73.00
2017-08-02T20:20:28.068Z,73.50
2017-08-02T20:22:54.463Z,73.70
2017-08-02T20:25:20.764Z,73.70
2017-08-02T20:27:47.083Z,74.60
2017-08-02T20:30:13.358Z,74.90
2017-08-02T20:32:39.636Z,74.80
2017-08-02T20:35:06.395Z,74.90
2017-08-02T20:37:32.719Z,75.10
2017-08-02T20:39:58.984Z,74.90
2017-08-02T20:42:26.644Z,75.10
2017-08-02T20:44:52.923Z,75.30
2017-08-02T20:47:20.850Z,75.30
2017-08-02T20:49:47.131Z,75.40
2017-08-02T20:52:14.497Z,75.90
2017-08-02T20:54:41.415Z,76.60
2017-08-02T20:57:07.716Z,76.20
2017-08-02T20:59:34.050Z,75.80
2017-08-02T21:02:00.705Z,76.30
2017-08-02T21:04:27.026Z,76.30
2017-08-02T21:06:53.299Z,76.90
2017-08-02T21:09:19.903Z,76.70
2017-08-02T21:11:46.192Z,76.40
2017-08-02T21:14:12.479Z,77.20
2017-08-02T21:16:38.806Z,77.40
2017-08-02T21:19:05.123Z,77.60
2017-08-02T21:21:31.396Z,77.50
2017-08-02T21:23:58.186Z,77.50
2017-08-02T21:26:24.793Z,77.80
2017-08-02T21:28:51.081Z,78.00
2017-08-02T21:31:17.422Z,78.20
2017-08-02T21:33:44.936Z,78.50
2017-08-02T21:36:11.238Z,78.40
2017-08-02T21:38:37.534Z,78.50
2017-08-02T21:41:03.834Z,78.20
2017-08-02T21:43:30.121Z,78.30
2017-08-02T21:45:56.423Z,78.00
2017-08-02T21:48:23.086Z,77.90
2017-08-02T21:50:49.366Z,77.90
2017-08-02T21:53:15.649Z,78.10
2017-08-02T21:55:41.986Z,78.20
2017-08-02T21:58:08.250Z,78.10
2017-08-02T22:00:35.115Z,78.40
2017-08-02T22:03:01.382Z,78.90
2017-08-02T22:05:27.663Z,79.30
2017-08-02T22:07:54.078Z,78.70
2017-08-02T22:10:20.373Z,78.20
2017-08-02T22:12:46.637Z,78.30
2017-08-02T22:15:13.737Z,78.70
2017-08-02T22:17:40.014Z,78.70
2017-08-02T22:20:06.269Z,78.60
2017-08-02T22:22:32.542Z,78.90
2017-08-02T22:24:58.806Z,79.40
2017-08-02T22:27:25.114Z,79.40
2017-08-02T22:29:51.377Z,79.00
2017-08-02T22:32:17.670Z,78.90
2017-08-02T22:34:43.939Z,79.10
2017-08-02T22:37:10.208Z,79.40
2017-08-02T22:39:36.459Z,79.80
2017-08-02T22:42:04.023Z,79.20
2017-08-02T22:47:18.733Z,79.00
2017-08-02T22:49:45.760Z,79.10
2017-08-02T22:52:12.617Z,80.00
2017-08-02T22:54:38.884Z,80.50
2017-08-02T22:57:05.134Z,80.90
2017-08-02T22:59:31.407Z,81.20
2017-08-02T23:01:57.643Z,80.80
2017-08-02T23:04:24.767Z,80.40
2017-08-02T23:06:51.016Z,80.40
2017-08-02T23:09:17.276Z,79.90
2017-08-02T23:11:43.555Z,79.60
2017-08-02T23:14:10.201Z,79.50
2017-08-02T23:16:36.452Z,79.50
2017-08-02T23:19:03.127Z,79.60
2017-08-02T23:21:29.378Z,79.60
2017-08-02T23:23:55.656Z,80.20
2017-08-02T23:26:21.959Z,80.10
2017-08-02T23:28:48.222Z,80.30
2017-08-02T23:31:14.494Z,79.70
2017-08-02T23:33:41.456Z,79.50
2017-08-02T23:36:07.719Z,79.40
2017-08-02T23:38:33.979Z,79.40
2017-08-02T23:41:01.241Z,79.40
2017-08-02T23:43:27.503Z,79.80
2017-08-02T23:45:54.081Z,80.40
2017-08-02T23:48:20.372Z,80.00
2017-08-02T23:50:46.662Z,79.90
2017-08-02T23:53:12.946Z,80.30
2017-08-02T23:55:39.215Z,80.50
2017-08-02T23:58:05.492Z,80.80
